sensor_id;sensor_type;location;lat;lon;timestamp;P1;durP1;ratioP1;P2;durP2;ratioP2
7745;SDS011;3917;42.748;23.278;2022-08-04T00:00:29;8.77;;;4.75;;
7745;SDS011;3917;42.748;23.278;2022-08-04T00:03:09;12.10;;;4.75;;
7745;SDS011;3917;42.748;23.278;2022-08-04T00:05:42;4.40;;;4.10;;
7745;SDS011;3917;42.748;23.278;2022-08-04T00:08:21;10.90;;;4.68;;
7745;SDS011;3917;42.748;23.278;2022-08-04T00:10:57;5.78;;;4.70;;
7745;SDS011;3917;42.748;23.278;2022-08-04T00:13:26;5.70;;;4.60;;
7745;SDS011;3917;42.748;23.278;2022-08-04T00:15:57;8.07;;;4.60;;
7745;SDS011;3917;42.748;23.278;2022-08-04T00:18:26;6.07;;;4.47;;
7745;SDS011;3917;42.748;23.278;2022-08-04T00:20:59;6.70;;;4.82;;
7745;SDS011;3917;42.748;23.278;2022-08-04T00:23:31;8.27;;;4.50;;
7745;SDS011;3917;42.748;23.278;2022-08-04T00:26:01;4.75;;;4.35;;
7745;SDS011;3917;42.748;23.278;2022-08-04T00:28:28;14.50;;;4.75;;
7745;SDS011;3917;42.748;23.278;2022-08-04T00:30:55;7.88;;;4.97;;
7745;SDS011;3917;42.748;23.278;2022-08-04T00:33:22;7.28;;;4.97;;
7745;SDS011;3917;42.748;23.278;2022-08-04T00:35:50;8.05;;;4.95;;
7745;SDS011;3917;42.748;23.278;2022-08-04T00:38:17;6.47;;;5.00;;
7745;SDS011;3917;42.748;23.278;2022-08-04T00:40:47;6.80;;;4.72;;
7745;SDS011;3917;42.748;23.278;2022-08-04T00:43:25;11.38;;;5.50;;
7745;SDS011;3917;42.748;23.278;2022-08-04T00:51:55;7.55;;;5.13;;
7745;SDS011;3917;42.748;23.278;2022-08-04T00:54:35;6.82;;;4.40;;
7745;SDS011;3917;42.748;23.278;2022-08-04T00:57:18;5.83;;;5.33;;
7745;SDS011;3917;42.748;23.278;2022-08-04T01:00:01;6.85;;;4.88;;
7745;SDS011;3917;42.748;23.278;2022-08-04T01:02:34;5.40;;;3.90;;
7745;SDS011;3917;42.748;23.278;2022-08-04T01:05:05;5.43;;;3.70;;
7745;SDS011;3917;42.748;23.278;2022-08-04T01:07:45;6.20;;;3.50;;
7745;SDS011;3917;42.748;23.278;2022-08-04T01:10:22;4.28;;;3.47;;
7745;SDS011;3917;42.748;23.278;2022-08-04T01:13:05;6.97;;;3.78;;
7745;SDS011;3917;42.748;23.278;2022-08-04T01:15:48;4.05;;;3.55;;
7745;SDS011;3917;42.748;23.278;2022-08-04T01:18:26;5.78;;;3.90;;
7745;SDS011;3917;42.748;23.278;2022-08-04T01:21:04;4.28;;;3.92;;
7745;SDS011;3917;42.748;23.278;2022-08-04T01:23:49;6.18;;;4.10;;
7745;SDS011;3917;42.748;23.278;2022-08-04T01:26:42;11.52;;;4.30;;
7745;SDS011;3917;42.748;23.278;2022-08-04T01:29:19;5.75;;;4.60;;
7745;SDS011;3917;42.748;23.278;2022-08-04T01:31:56;4.80;;;4.40;;
7745;SDS011;3917;42.748;23.278;2022-08-04T01:34:28;6.28;;;4.70;;
7745;SDS011;3917;42.748;23.278;2022-08-04T01:36:57;5.03;;;4.65;;
7745;SDS011;3917;42.748;23.278;2022-08-04T01:39:32;8.32;;;4.95;;
7745;SDS011;3917;42.748;23.278;2022-08-04T01:42:07;7.85;;;5.65;;
7745;SDS011;3917;42.748;23.278;2022-08-04T01:44:37;5.90;;;5.30;;
7745;SDS011;3917;42.748;23.278;2022-08-04T01:47:06;6.25;;;5.28;;
7745;SDS011;3917;42.748;23.278;2022-08-04T01:49:34;11.75;;;5.07;;
7745;SDS011;3917;42.748;23.278;2022-08-04T01:52:03;8.30;;;5.00;;
7745;SDS011;3917;42.748;23.278;2022-08-04T01:54:32;6.90;;;5.20;;
7745;SDS011;3917;42.748;23.278;2022-08-04T01:57:03;5.90;;;5.30;;
7745;SDS011;3917;42.748;23.278;2022-08-04T01:59:34;6.00;;;5.40;;
7745;SDS011;3917;42.748;23.278;2022-08-04T02:02:04;6.25;;;5.60;;
7745;SDS011;3917;42.748;23.278;2022-08-04T02:04:31;10.05;;;5.38;;
7745;SDS011;3917;42.748;23.278;2022-08-04T02:07:01;6.28;;;5.13;;
7745;SDS011;3917;42.748;23.278;2022-08-04T02:09:37;7.93;;;4.97;;
7745;SDS011;3917;42.748;23.278;2022-08-04T02:12:08;5.32;;;4.82;;
7745;SDS011;3917;42.748;23.278;2022-08-04T02:14:45;7.30;;;5.38;;
7745;SDS011;3917;42.748;23.278;2022-08-04T02:17:21;8.40;;;5.13;;
7745;SDS011;3917;42.748;23.278;2022-08-04T02:19:58;7.15;;;5.78;;
7745;SDS011;3917;42.748;23.278;2022-08-04T02:22:31;5.85;;;5.35;;
7745;SDS011;3917;42.748;23.278;2022-08-04T02:25:02;8.75;;;5.55;;
7745;SDS011;3917;42.748;23.278;2022-08-04T02:27:45;6.63;;;5.50;;
7745;SDS011;3917;42.748;23.278;2022-08-04T02:30:22;13.60;;;6.15;;
7745;SDS011;3917;42.748;23.278;2022-08-04T02:32:58;6.68;;;6.00;;
7745;SDS011;3917;42.748;23.278;2022-08-04T02:35:28;9.73;;;6.53;;
7745;SDS011;3917;42.748;23.278;2022-08-04T02:38:06;8.98;;;7.00;;
7745;SDS011;3917;42.748;23.278;2022-08-04T02:40:39;7.65;;;6.38;;
7745;SDS011;3917;42.748;23.278;2022-08-04T02:43:08;14.75;;;6.30;;
7745;SDS011;3917;42.748;23.278;2022-08-04T02:45:35;15.60;;;7.05;;
7745;SDS011;3917;42.748;23.278;2022-08-04T02:48:04;9.02;;;5.82;;
7745;SDS011;3917;42.748;23.278;2022-08-04T02:50:35;8.07;;;5.53;;
7745;SDS011;3917;42.748;23.278;2022-08-04T02:53:03;8.95;;;5.97;;
7745;SDS011;3917;42.748;23.278;2022-08-04T02:55:32;9.85;;;6.30;;
7745;SDS011;3917;42.748;23.278;2022-08-04T02:58:01;7.45;;;6.65;;
7745;SDS011;3917;42.748;23.278;2022-08-04T03:00:29;9.20;;;6.75;;
7745;SDS011;3917;42.748;23.278;2022-08-04T03:02:59;14.38;;;8.48;;
7745;SDS011;3917;42.748;23.278;2022-08-04T03:05:39;11.93;;;7.28;;
7745;SDS011;3917;42.748;23.278;2022-08-04T03:11:44;10.40;;;8.55;;
7745;SDS011;3917;42.748;23.278;2022-08-04T03:14:39;10.52;;;7.97;;
7745;SDS011;3917;42.748;23.278;2022-08-04T03:20:30;13.52;;;8.18;;
7745;SDS011;3917;42.748;23.278;2022-08-04T03:23:44;10.57;;;7.72;;
7745;SDS011;3917;42.748;23.278;2022-08-04T03:26:51;8.18;;;7.25;;
7745;SDS011;3917;42.748;23.278;2022-08-04T03:32:42;12.68;;;7.97;;
7745;SDS011;3917;42.748;23.278;2022-08-04T03:38:36;15.15;;;8.05;;
7745;SDS011;3917;42.748;23.278;2022-08-04T03:41:38;12.48;;;7.63;;
7745;SDS011;3917;42.748;23.278;2022-08-04T03:44:41;13.40;;;6.78;;
7745;SDS011;3917;42.748;23.278;2022-08-04T03:47:35;12.43;;;6.72;;
7745;SDS011;3917;42.748;23.278;2022-08-04T03:50:28;16.88;;;7.53;;
7745;SDS011;3917;42.748;23.278;2022-08-04T03:53:24;14.80;;;6.40;;
7745;SDS011;3917;42.748;23.278;2022-08-04T04:08:27;6.82;;;4.97;;
7745;SDS011;3917;42.748;23.278;2022-08-04T04:11:13;8.85;;;5.68;;
7745;SDS011;3917;42.748;23.278;2022-08-04T04:17:11;16.10;;;5.72;;
7745;SDS011;3917;42.748;23.278;2022-08-04T04:19:58;6.55;;;5.05;;
7745;SDS011;3917;42.748;23.278;2022-08-04T04:22:52;16.83;;;7.00;;
7745;SDS011;3917;42.748;23.278;2022-08-04T04:25:35;20.17;;;5.85;;
7745;SDS011;3917;42.748;23.278;2022-08-04T04:28:18;13.55;;;5.47;;
7745;SDS011;3917;42.748;23.278;2022-08-04T04:31:01;8.13;;;5.38;;
7745;SDS011;3917;42.748;23.278;2022-08-04T04:33:43;5.97;;;5.38;;
7745;SDS011;3917;42.748;23.278;2022-08-04T04:36:22;19.40;;;6.35;;
7745;SDS011;3917;42.748;23.278;2022-08-04T04:39:01;11.30;;;5.97;;
7745;SDS011;3917;42.748;23.278;2022-08-04T04:41:46;13.02;;;6.10;;
7745;SDS011;3917;42.748;23.278;2022-08-04T04:44:39;10.80;;;5.93;;
7745;SDS011;3917;42.748;23.278;2022-08-04T04:47:20;8.65;;;6.25;;
7745;SDS011;3917;42.748;23.278;2022-08-04T04:49:53;6.03;;;5.53;;
7745;SDS011;3917;42.748;23.278;2022-08-04T04:52:32;7.63;;;6.28;;
7745;SDS011;3917;42.748;23.278;2022-08-04T04:55:14;6.63;;;5.60;;
7745;SDS011;3917;42.748;23.278;2022-08-04T04:57:46;9.85;;;5.90;;
7745;SDS011;3917;42.748;23.278;2022-08-04T05:00:15;5.88;;;5.10;;
7745;SDS011;3917;42.748;23.278;2022-08-04T05:02:56;10.25;;;5.25;;
7745;SDS011;3917;42.748;23.278;2022-08-04T05:05:42;7.45;;;5.45;;
7745;SDS011;3917;42.748;23.278;2022-08-04T05:08:42;5.88;;;4.93;;
7745;SDS011;3917;42.748;23.278;2022-08-04T05:11:32;9.27;;;5.60;;
7745;SDS011;3917;42.748;23.278;2022-08-04T05:14:26;9.75;;;5.05;;
7745;SDS011;3917;42.748;23.278;2022-08-04T05:17:01;5.57;;;4.97;;
7745;SDS011;3917;42.748;23.278;2022-08-04T05:19:49;7.40;;;5.28;;
7745;SDS011;3917;42.748;23.278;2022-08-04T05:22:27;5.97;;;4.80;;
7745;SDS011;3917;42.748;23.278;2022-08-04T05:25:02;7.20;;;5.05;;
7745;SDS011;3917;42.748;23.278;2022-08-04T05:27:36;5.03;;;4.72;;
7745;SDS011;3917;42.748;23.278;2022-08-04T05:30:12;6.15;;;5.22;;
7745;SDS011;3917;42.748;23.278;2022-08-04T05:32:42;5.05;;;4.63;;
7745;SDS011;3917;42.748;23.278;2022-08-04T05:35:15;6.25;;;5.47;;
7745;SDS011;3917;42.748;23.278;2022-08-04T05:37:49;8.65;;;5.95;;
7745;SDS011;3917;42.748;23.278;2022-08-04T05:40:18;6.93;;;5.20;;
7745;SDS011;3917;42.748;23.278;2022-08-04T05:42:45;7.45;;;5.55;;
7745;SDS011;3917;42.748;23.278;2022-08-04T05:45:18;12.25;;;5.30;;
7745;SDS011;3917;42.748;23.278;2022-08-04T05:47:49;10.85;;;5.72;;
7745;SDS011;3917;42.748;23.278;2022-08-04T05:50:18;6.05;;;5.43;;
7745;SDS011;3917;42.748;23.278;2022-08-04T05:52:46;16.83;;;5.43;;
7745;SDS011;3917;42.748;23.278;2022-08-04T05:55:17;12.95;;;5.90;;
7745;SDS011;3917;42.748;23.278;2022-08-04T05:57:46;8.40;;;5.22;;
7745;SDS011;3917;42.748;23.278;2022-08-04T06:00:17;11.73;;;5.47;;
7745;SDS011;3917;42.748;23.278;2022-08-04T06:02:46;10.20;;;5.13;;
7745;SDS011;3917;42.748;23.278;2022-08-04T06:05:15;8.88;;;5.55;;
7745;SDS011;3917;42.748;23.278;2022-08-04T06:07:43;10.32;;;5.20;;
7745;SDS011;3917;42.748;23.278;2022-08-04T06:10:11;14.05;;;5.72;;
7745;SDS011;3917;42.748;23.278;2022-08-04T06:12:43;6.82;;;4.63;;
7745;SDS011;3917;42.748;23.278;2022-08-04T06:15:20;5.97;;;4.90;;
7745;SDS011;3917;42.748;23.278;2022-08-04T06:17:52;6.38;;;4.95;;
7745;SDS011;3917;42.748;23.278;2022-08-04T06:20:22;8.13;;;5.80;;
7745;SDS011;3917;42.748;23.278;2022-08-04T06:22:54;11.10;;;5.47;;
7745;SDS011;3917;42.748;23.278;2022-08-04T06:25:25;8.98;;;5.50;;
7745;SDS011;3917;42.748;23.278;2022-08-04T06:27:56;12.25;;;5.88;;
7745;SDS011;3917;42.748;23.278;2022-08-04T06:30:26;7.68;;;5.80;;
7745;SDS011;3917;42.748;23.278;2022-08-04T06:32:56;6.20;;;5.53;;
7745;SDS011;3917;42.748;23.278;2022-08-04T06:35:27;6.57;;;5.93;;
7745;SDS011;3917;42.748;23.278;2022-08-04T06:37:55;5.53;;;5.13;;
7745;SDS011;3917;42.748;23.278;2022-08-04T06:40:23;9.20;;;5.60;;
7745;SDS011;3917;42.748;23.278;2022-08-04T06:42:51;7.05;;;4.80;;
7745;SDS011;3917;42.748;23.278;2022-08-04T06:45:19;8.30;;;5.18;;
7745;SDS011;3917;42.748;23.278;2022-08-04T06:47:48;6.90;;;5.15;;
7745;SDS011;3917;42.748;23.278;2022-08-04T06:50:15;9.73;;;5.22;;
7745;SDS011;3917;42.748;23.278;2022-08-04T06:52:49;8.35;;;4.97;;
7745;SDS011;3917;42.748;23.278;2022-08-04T06:55:16;8.88;;;4.88;;
7745;SDS011;3917;42.748;23.278;2022-08-04T06:57:45;9.55;;;5.28;;
7745;SDS011;3917;42.748;23.278;2022-08-04T07:00:13;7.45;;;5.00;;
7745;SDS011;3917;42.748;23.278;2022-08-04T07:02:43;5.18;;;4.70;;
7745;SDS011;3917;42.748;23.278;2022-08-04T07:05:15;7.70;;;5.32;;
7745;SDS011;3917;42.748;23.278;2022-08-04T07:07:43;9.93;;;5.05;;
7745;SDS011;3917;42.748;23.278;2022-08-04T07:10:11;8.02;;;4.35;;
7745;SDS011;3917;42.748;23.278;2022-08-04T07:12:40;9.68;;;4.43;;
7745;SDS011;3917;42.748;23.278;2022-08-04T07:15:09;6.95;;;4.60;;
7745;SDS011;3917;42.748;23.278;2022-08-04T07:17:39;7.30;;;5.10;;
7745;SDS011;3917;42.748;23.278;2022-08-04T07:20:08;6.82;;;4.95;;
7745;SDS011;3917;42.748;23.278;2022-08-04T07:22:40;8.82;;;4.50;;
7745;SDS011;3917;42.748;23.278;2022-08-04T07:25:12;4.93;;;4.32;;
7745;SDS011;3917;42.748;23.278;2022-08-04T07:27:41;7.53;;;4.50;;
7745;SDS011;3917;42.748;23.278;2022-08-04T07:30:09;8.82;;;4.05;;
7745;SDS011;3917;42.748;23.278;2022-08-04T07:32:36;4.75;;;4.32;;
7745;SDS011;3917;42.748;23.278;2022-08-04T07:35:04;6.32;;;4.20;;
7745;SDS011;3917;42.748;23.278;2022-08-04T07:37:32;9.25;;;4.10;;
7745;SDS011;3917;42.748;23.278;2022-08-04T07:40:00;8.05;;;4.28;;
7745;SDS011;3917;42.748;23.278;2022-08-04T07:42:27;7.45;;;4.18;;
7745;SDS011;3917;42.748;23.278;2022-08-04T07:44:55;11.52;;;4.43;;
7745;SDS011;3917;42.748;23.278;2022-08-04T07:50:11;9.15;;;4.45;;
7745;SDS011;3917;42.748;23.278;2022-08-04T07:52:42;7.43;;;4.57;;
7745;SDS011;3917;42.748;23.278;2022-08-04T07:55:16;5.82;;;4.25;;
7745;SDS011;3917;42.748;23.278;2022-08-04T07:57:47;8.38;;;4.50;;
7745;SDS011;3917;42.748;23.278;2022-08-04T08:00:14;6.43;;;4.60;;
7745;SDS011;3917;42.748;23.278;2022-08-04T08:02:42;7.25;;;4.03;;
7745;SDS011;3917;42.748;23.278;2022-08-04T08:05:11;4.75;;;3.47;;
7745;SDS011;3917;42.748;23.278;2022-08-04T08:07:40;9.82;;;3.80;;
7745;SDS011;3917;42.748;23.278;2022-08-04T08:10:11;15.75;;;4.35;;
7745;SDS011;3917;42.748;23.278;2022-08-04T08:12:40;11.55;;;4.47;;
7745;SDS011;3917;42.748;23.278;2022-08-04T08:15:08;11.68;;;4.30;;
7745;SDS011;3917;42.748;23.278;2022-08-04T08:17:36;7.82;;;4.43;;
7745;SDS011;3917;42.748;23.278;2022-08-04T08:20:05;9.90;;;4.28;;
7745;SDS011;3917;42.748;23.278;2022-08-04T08:22:33;8.93;;;4.40;;
7745;SDS011;3917;42.748;23.278;2022-08-04T08:25:01;10.18;;;4.40;;
7745;SDS011;3917;42.748;23.278;2022-08-04T08:27:28;5.72;;;4.20;;
7745;SDS011;3917;42.748;23.278;2022-08-04T08:29:56;5.75;;;4.10;;
7745;SDS011;3917;42.748;23.278;2022-08-04T08:32:23;7.65;;;3.95;;
7745;SDS011;3917;42.748;23.278;2022-08-04T08:34:51;4.60;;;4.15;;
7745;SDS011;3917;42.748;23.278;2022-08-04T08:37:18;11.18;;;3.75;;
7745;SDS011;3917;42.748;23.278;2022-08-04T08:39:56;6.57;;;3.80;;
7745;SDS011;3917;42.748;23.278;2022-08-04T08:42:35;7.07;;;3.67;;
7745;SDS011;3917;42.748;23.278;2022-08-04T08:45:31;15.82;;;3.63;;
7745;SDS011;3917;42.748;23.278;2022-08-04T08:51:17;5.28;;;3.28;;
7745;SDS011;3917;42.748;23.278;2022-08-04T08:53:51;9.60;;;3.38;;
7745;SDS011;3917;42.748;23.278;2022-08-04T08:56:38;7.18;;;3.63;;
7745;SDS011;3917;42.748;23.278;2022-08-04T08:59:38;7.57;;;3.60;;
7745;SDS011;3917;42.748;23.278;2022-08-04T09:02:32;11.55;;;3.60;;
7745;SDS011;3917;42.748;23.278;2022-08-04T09:05:21;4.75;;;2.92;;
7745;SDS011;3917;42.748;23.278;2022-08-04T09:08:06;7.20;;;3.13;;
7745;SDS011;3917;42.748;23.278;2022-08-04T09:10:45;6.15;;;3.30;;
7745;SDS011;3917;42.748;23.278;2022-08-04T09:13:16;8.10;;;3.42;;
7745;SDS011;3917;42.748;23.278;2022-08-04T09:15:46;6.97;;;3.00;;
7745;SDS011;3917;42.748;23.278;2022-08-04T09:18:24;4.70;;;3.33;;
7745;SDS011;3917;42.748;23.278;2022-08-04T09:20:58;5.22;;;2.72;;
7745;SDS011;3917;42.748;23.278;2022-08-04T09:23:31;3.17;;;2.53;;
7745;SDS011;3917;42.748;23.278;2022-08-04T09:26:08;3.38;;;2.47;;
7745;SDS011;3917;42.748;23.278;2022-08-04T09:31:12;3.13;;;2.58;;
7745;SDS011;3917;42.748;23.278;2022-08-04T09:33:46;4.28;;;2.80;;
7745;SDS011;3917;42.748;23.278;2022-08-04T09:36:31;2.40;;;2.20;;
7745;SDS011;3917;42.748;23.278;2022-08-04T09:39:05;5.55;;;2.45;;
7745;SDS011;3917;42.748;23.278;2022-08-04T09:44:15;4.43;;;2.20;;
7745;SDS011;3917;42.748;23.278;2022-08-04T09:46:49;2.60;;;1.55;;
7745;SDS011;3917;42.748;23.278;2022-08-04T09:49:25;2.60;;;1.58;;
7745;SDS011;3917;42.748;23.278;2022-08-04T09:51:58;3.90;;;2.03;;
7745;SDS011;3917;42.748;23.278;2022-08-04T09:54:35;3.00;;;1.50;;
7745;SDS011;3917;42.748;23.278;2022-08-04T09:57:12;1.98;;;1.80;;
7745;SDS011;3917;42.748;23.278;2022-08-04T09:59:52;2.88;;;1.80;;
7745;SDS011;3917;42.748;23.278;2022-08-04T10:02:26;2.70;;;1.58;;
7745;SDS011;3917;42.748;23.278;2022-08-04T10:04:59;4.68;;;1.45;;
7745;SDS011;3917;42.748;23.278;2022-08-04T10:07:40;5.28;;;1.80;;
7745;SDS011;3917;42.748;23.278;2022-08-04T10:10:19;2.03;;;1.75;;
7745;SDS011;3917;42.748;23.278;2022-08-04T10:13:07;2.78;;;1.80;;
7745;SDS011;3917;42.748;23.278;2022-08-04T10:15:45;6.57;;;2.17;;
7745;SDS011;3917;42.748;23.278;2022-08-04T10:18:27;4.28;;;1.85;;
7745;SDS011;3917;42.748;23.278;2022-08-04T10:21:10;7.07;;;1.80;;
7745;SDS011;3917;42.748;23.278;2022-08-04T10:23:49;4.82;;;1.77;;
7745;SDS011;3917;42.748;23.278;2022-08-04T10:26:26;2.25;;;1.40;;
7745;SDS011;3917;42.748;23.278;2022-08-04T10:29:00;6.43;;;1.90;;
7745;SDS011;3917;42.748;23.278;2022-08-04T10:31:32;4.15;;;1.75;;
7745;SDS011;3917;42.748;23.278;2022-08-04T10:34:01;5.10;;;1.90;;
7745;SDS011;3917;42.748;23.278;2022-08-04T10:36:38;1.85;;;1.75;;
7745;SDS011;3917;42.748;23.278;2022-08-04T10:39:16;2.30;;;1.83;;
7745;SDS011;3917;42.748;23.278;2022-08-04T10:41:48;2.88;;;1.92;;
7745;SDS011;3917;42.748;23.278;2022-08-04T10:44:21;3.15;;;2.50;;
7745;SDS011;3917;42.748;23.278;2022-08-04T10:46:57;3.13;;;1.70;;
7745;SDS011;3917;42.748;23.278;2022-08-04T10:49:32;4.23;;;1.83;;
7745;SDS011;3917;42.748;23.278;2022-08-04T10:52:05;1.60;;;1.50;;
7745;SDS011;3917;42.748;23.278;2022-08-04T10:54:38;1.52;;;1.42;;
7745;SDS011;3917;42.748;23.278;2022-08-04T10:57:14;5.40;;;1.90;;
7745;SDS011;3917;42.748;23.278;2022-08-04T10:59:50;2.38;;;1.60;;
7745;SDS011;3917;42.748;23.278;2022-08-04T11:02:30;4.43;;;1.70;;
7745;SDS011;3917;42.748;23.278;2022-08-04T11:05:10;7.43;;;2.22;;
7745;SDS011;3917;42.748;23.278;2022-08-04T11:07:44;8.65;;;1.73;;
7745;SDS011;3917;42.748;23.278;2022-08-04T11:10:14;4.05;;;2.20;;
7745;SDS011;3917;42.748;23.278;2022-08-04T11:12:43;3.25;;;1.92;;
7745;SDS011;3917;42.748;23.278;2022-08-04T11:15:15;1.88;;;1.40;;
7745;SDS011;3917;42.748;23.278;2022-08-04T11:17:46;2.10;;;1.90;;
7745;SDS011;3917;42.748;23.278;2022-08-04T11:20:21;1.83;;;1.40;;
7745;SDS011;3917;42.748;23.278;2022-08-04T11:22:57;5.63;;;1.90;;
7745;SDS011;3917;42.748;23.278;2022-08-04T11:28:02;1.50;;;1.30;;
7745;SDS011;3917;42.748;23.278;2022-08-04T11:30:35;3.53;;;1.40;;
7745;SDS011;3917;42.748;23.278;2022-08-04T11:33:20;1.58;;;1.35;;
7745;SDS011;3917;42.748;23.278;2022-08-04T11:35:54;2.83;;;1.80;;
7745;SDS011;3917;42.748;23.278;2022-08-04T11:38:28;2.05;;;1.30;;
7745;SDS011;3917;42.748;23.278;2022-08-04T11:41:03;4.13;;;1.70;;
7745;SDS011;3917;42.748;23.278;2022-08-04T11:43:36;1.63;;;1.50;;
7745;SDS011;3917;42.748;23.278;2022-08-04T11:46:11;4.82;;;2.58;;
7745;SDS011;3917;42.748;23.278;2022-08-04T11:48:44;2.70;;;2.00;;
7745;SDS011;3917;42.748;23.278;2022-08-04T11:51:16;3.67;;;1.50;;
7745;SDS011;3917;42.748;23.278;2022-08-04T11:53:46;1.60;;;1.50;;
7745;SDS011;3917;42.748;23.278;2022-08-04T11:56:15;2.65;;;1.40;;
7745;SDS011;3917;42.748;23.278;2022-08-04T11:58:42;3.40;;;1.50;;
7745;SDS011;3917;42.748;23.278;2022-08-04T12:01:11;2.03;;;1.60;;
7745;SDS011;3917;42.748;23.278;2022-08-04T12:03:45;1.63;;;1.53;;
7745;SDS011;3917;42.748;23.278;2022-08-04T12:06:24;2.97;;;1.90;;
7745;SDS011;3917;42.748;23.278;2022-08-04T12:09:06;5.97;;;1.73;;
7745;SDS011;3917;42.748;23.278;2022-08-04T12:11:39;2.85;;;1.90;;
7745;SDS011;3917;42.748;23.278;2022-08-04T12:14:20;3.80;;;1.88;;
7745;SDS011;3917;42.748;23.278;2022-08-04T12:16:59;4.13;;;2.15;;
7745;SDS011;3917;42.748;23.278;2022-08-04T12:19:33;1.85;;;1.70;;
7745;SDS011;3917;42.748;23.278;2022-08-04T12:22:05;3.85;;;1.80;;
7745;SDS011;3917;42.748;23.278;2022-08-04T12:24:39;7.95;;;2.08;;
7745;SDS011;3917;42.748;23.278;2022-08-04T12:27:10;6.10;;;2.00;;
7745;SDS011;3917;42.748;23.278;2022-08-04T12:29:42;3.08;;;2.20;;
7745;SDS011;3917;42.748;23.278;2022-08-04T12:32:16;4.90;;;1.90;;
7745;SDS011;3917;42.748;23.278;2022-08-04T12:34:48;5.95;;;2.22;;
7745;SDS011;3917;42.748;23.278;2022-08-04T12:37:26;10.60;;;2.70;;
7745;SDS011;3917;42.748;23.278;2022-08-04T12:40:02;5.38;;;2.35;;
7745;SDS011;3917;42.748;23.278;2022-08-04T12:42:35;5.10;;;1.95;;
7745;SDS011;3917;42.748;23.278;2022-08-04T12:45:10;2.85;;;1.95;;
7745;SDS011;3917;42.748;23.278;2022-08-04T12:47:39;3.53;;;1.77;;
7745;SDS011;3917;42.748;23.278;2022-08-04T12:50:07;2.13;;;1.92;;
7745;SDS011;3917;42.748;23.278;2022-08-04T12:52:42;3.80;;;2.05;;
7745;SDS011;3917;42.748;23.278;2022-08-04T12:55:14;4.15;;;2.08;;
7745;SDS011;3917;42.748;23.278;2022-08-04T12:57:43;3.60;;;2.20;;
7745;SDS011;3917;42.748;23.278;2022-08-04T13:00:13;3.58;;;2.00;;
7745;SDS011;3917;42.748;23.278;2022-08-04T13:02:49;4.70;;;2.67;;
7745;SDS011;3917;42.748;23.278;2022-08-04T13:05:18;6.50;;;2.50;;
7745;SDS011;3917;42.748;23.278;2022-08-04T13:07:47;3.72;;;2.30;;
7745;SDS011;3917;42.748;23.278;2022-08-04T13:10:19;5.95;;;2.45;;
7745;SDS011;3917;42.748;23.278;2022-08-04T13:12:54;5.15;;;2.60;;
7745;SDS011;3917;42.748;23.278;2022-08-04T13:15:23;4.72;;;2.42;;
7745;SDS011;3917;42.748;23.278;2022-08-04T13:17:52;6.57;;;2.08;;
7745;SDS011;3917;42.748;23.278;2022-08-04T13:20:26;2.38;;;2.17;;
7745;SDS011;3917;42.748;23.278;2022-08-04T13:22:59;5.22;;;2.08;;
7745;SDS011;3917;42.748;23.278;2022-08-04T13:25:31;2.30;;;2.10;;
7745;SDS011;3917;42.748;23.278;2022-08-04T13:28:00;2.50;;;2.17;;
7745;SDS011;3917;42.748;23.278;2022-08-04T13:30:29;3.10;;;2.28;;
7745;SDS011;3917;42.748;23.278;2022-08-04T13:32:57;2.72;;;2.05;;
7745;SDS011;3917;42.748;23.278;2022-08-04T13:35:26;7.25;;;2.03;;
7745;SDS011;3917;42.748;23.278;2022-08-04T13:37:54;5.75;;;2.10;;
7745;SDS011;3917;42.748;23.278;2022-08-04T13:40:24;2.42;;;2.20;;
7745;SDS011;3917;42.748;23.278;2022-08-04T13:42:53;2.80;;;1.88;;
7745;SDS011;3917;42.748;23.278;2022-08-04T13:45:22;2.03;;;1.92;;
7745;SDS011;3917;42.748;23.278;2022-08-04T13:47:50;3.70;;;2.13;;
7745;SDS011;3917;42.748;23.278;2022-08-04T13:50:24;2.25;;;1.90;;
7745;SDS011;3917;42.748;23.278;2022-08-04T13:52:54;5.70;;;2.30;;
7745;SDS011;3917;42.748;23.278;2022-08-04T13:55:24;2.03;;;1.90;;
7745;SDS011;3917;42.748;23.278;2022-08-04T13:57:59;4.07;;;2.10;;
7745;SDS011;3917;42.748;23.278;2022-08-04T14:00:43;2.22;;;2.05;;
7745;SDS011;3917;42.748;23.278;2022-08-04T14:03:16;2.28;;;2.15;;
7745;SDS011;3917;42.748;23.278;2022-08-04T14:06:05;2.42;;;2.33;;
7745;SDS011;3917;42.748;23.278;2022-08-04T14:08:41;2.30;;;2.20;;
7745;SDS011;3917;42.748;23.278;2022-08-04T14:11:13;2.35;;;2.15;;
7745;SDS011;3917;42.748;23.278;2022-08-04T14:13:41;6.38;;;2.83;;
7745;SDS011;3917;42.748;23.278;2022-08-04T14:16:15;2.75;;;2.30;;
7745;SDS011;3917;42.748;23.278;2022-08-04T14:18:43;2.08;;;1.98;;
7745;SDS011;3917;42.748;23.278;2022-08-04T14:21:10;3.33;;;2.20;;
7745;SDS011;3917;42.748;23.278;2022-08-04T14:23:42;2.53;;;2.33;;
7745;SDS011;3917;42.748;23.278;2022-08-04T14:26:16;2.75;;;2.58;;
7745;SDS011;3917;42.748;23.278;2022-08-04T14:28:49;2.58;;;2.17;;
7745;SDS011;3917;42.748;23.278;2022-08-04T14:31:17;3.17;;;2.20;;
7745;SDS011;3917;42.748;23.278;2022-08-04T14:33:45;4.45;;;2.20;;
7745;SDS011;3917;42.748;23.278;2022-08-04T14:36:16;6.15;;;2.83;;
7745;SDS011;3917;42.748;23.278;2022-08-04T14:38:45;3.17;;;2.90;;
7745;SDS011;3917;42.748;23.278;2022-08-04T14:41:13;2.80;;;2.60;;
7745;SDS011;3917;42.748;23.278;2022-08-04T14:43:43;6.40;;;2.78;;
7745;SDS011;3917;42.748;23.278;2022-08-04T14:46:12;5.72;;;3.05;;
7745;SDS011;3917;42.748;23.278;2022-08-04T14:48:41;2.33;;;2.22;;
7745;SDS011;3917;42.748;23.278;2022-08-04T14:51:25;2.95;;;2.22;;
7745;SDS011;3917;42.748;23.278;2022-08-04T14:53:53;4.35;;;2.30;;
7745;SDS011;3917;42.748;23.278;2022-08-04T14:56:20;4.10;;;2.03;;
7745;SDS011;3917;42.748;23.278;2022-08-04T14:58:57;3.40;;;2.20;;
7745;SDS011;3917;42.748;23.278;2022-08-04T15:01:27;5.05;;;2.30;;
7745;SDS011;3917;42.748;23.278;2022-08-04T15:03:54;2.58;;;2.35;;
7745;SDS011;3917;42.748;23.278;2022-08-04T15:06:23;4.43;;;2.17;;
7745;SDS011;3917;42.748;23.278;2022-08-04T15:08:52;7.45;;;2.58;;
7745;SDS011;3917;42.748;23.278;2022-08-04T15:11:21;5.82;;;2.45;;
7745;SDS011;3917;42.748;23.278;2022-08-04T15:13:48;5.32;;;2.40;;
7745;SDS011;3917;42.748;23.278;2022-08-04T15:16:15;6.97;;;2.70;;
7745;SDS011;3917;42.748;23.278;2022-08-04T15:18:43;5.05;;;2.35;;
7745;SDS011;3917;42.748;23.278;2022-08-04T15:21:10;5.18;;;2.20;;
7745;SDS011;3917;42.748;23.278;2022-08-04T15:23:39;3.10;;;2.67;;
7745;SDS011;3917;42.748;23.278;2022-08-04T15:26:10;3.60;;;2.53;;
7745;SDS011;3917;42.748;23.278;2022-08-04T15:28:39;3.03;;;2.75;;
7745;SDS011;3917;42.748;23.278;2022-08-04T15:31:10;2.42;;;2.20;;
7745;SDS011;3917;42.748;23.278;2022-08-04T15:33:38;8.45;;;2.67;;
7745;SDS011;3917;42.748;23.278;2022-08-04T15:36:11;3.28;;;2.42;;
7745;SDS011;3917;42.748;23.278;2022-08-04T15:38:43;13.05;;;3.13;;
7745;SDS011;3917;42.748;23.278;2022-08-04T15:41:19;7.65;;;2.25;;
7745;SDS011;3917;42.748;23.278;2022-08-04T15:43:54;2.97;;;2.75;;
7745;SDS011;3917;42.748;23.278;2022-08-04T15:47:03;10.52;;;2.70;;
7745;SDS011;3917;42.748;23.278;2022-08-04T15:49:36;6.65;;;4.70;;
7745;SDS011;3917;42.748;23.278;2022-08-04T15:52:07;7.28;;;2.58;;
7745;SDS011;3917;42.748;23.278;2022-08-04T15:54:35;8.05;;;2.05;;
7745;SDS011;3917;42.748;23.278;2022-08-04T15:57:02;3.97;;;2.30;;
7745;SDS011;3917;42.748;23.278;2022-08-04T16:02:27;4.28;;;2.80;;
7745;SDS011;3917;42.748;23.278;2022-08-04T16:10:52;2.53;;;2.33;;
7745;SDS011;3917;42.748;23.278;2022-08-04T16:13:19;3.10;;;2.65;;
7745;SDS011;3917;42.748;23.278;2022-08-04T16:15:49;3.22;;;2.92;;
7745;SDS011;3917;42.748;23.278;2022-08-04T16:18:19;8.40;;;2.85;;
7745;SDS011;3917;42.748;23.278;2022-08-04T16:21:04;6.32;;;2.92;;
7745;SDS011;3917;42.748;23.278;2022-08-04T16:26:42;13.35;;;4.45;;
7745;SDS011;3917;42.748;23.278;2022-08-04T16:32:14;3.45;;;2.45;;
7745;SDS011;3917;42.748;23.278;2022-08-04T16:34:46;10.70;;;3.08;;
7745;SDS011;3917;42.748;23.278;2022-08-04T16:37:18;12.25;;;2.83;;
7745;SDS011;3917;42.748;23.278;2022-08-04T16:39:47;5.13;;;3.00;;
7745;SDS011;3917;42.748;23.278;2022-08-04T16:42:30;6.20;;;2.80;;
7745;SDS011;3917;42.748;23.278;2022-08-04T16:44:59;2.60;;;2.50;;